Air Resources Laboratory banner image
Air Resources Laboratory web site National Oceanic and Atmospheric Administration (NOAA)

wv metar


KBKW 220051Z AUTO 00000KT 10SM CLR M01/M03 A3025 RMK AO2 SLP272 T10061033 TSNO=
KBLF 220052Z AUTO 27005KT 10SM CLR 01/M02 A3025 RMK AO2 SLP259 T00111022=
KCKB 220053Z AUTO 00000KT 10SM CLR 02/M02 A3026 RMK AO2 SLP252 T00221017=
KCRW 220054Z 00000KT 10SM CLR 02/00 A3028 RMK AO2 SLP259 T00220000 $=
KEKN 220051Z AUTO 00000KT 10SM CLR M01/M03 A3025 RMK AO2 SLP267 T10061028 TSNO=
KHLG 220053Z AUTO 15004KT 10SM CLR 01/M02 A3024 RMK AO2 SLP253 T00111022=
KHTS 220051Z AUTO 00000KT 10SM CLR 04/M01 A3028 RMK AO2 SLP257 T00391011=
KLWB 220055Z AUTO 00000KT 10SM CLR 01/M02 A3026 RMK AO2 T00051021=
KMGW 220053Z 00000KT 10SM CLR 02/00 A3026 RMK AO2 SLP256 T00170000=
KMRB 220053Z AUTO 28009KT 10SM SCT043 06/M02 A3023 RMK AO2 SLP241 T00611017=
KPKB 220053Z 00000KT 10SM CLR 02/M01 A3029 RMK AO2 SLP264 T00171006=
KUNI 220055Z AUTO 00000KT 10SM CLR 01/00 A3027 RMK AO2 T00100000=
KW99 220055Z AUTO 00000KT 10SM SCT040 01/M01 A3025 RMK AO2 T00071010=